Time,TemperatureF,DewpointF,PressureIn,WindDirection,WindDirectionDegrees,WindSpeedMPH,WindSpeedGustMPH,Humidity,HourlyPrecipIn,Conditions,Clouds,dailyrainin,SolarRadiationWatts/m^2,SoftwareType,DateUTC
2013-04-28 00:00:00,60.2,43.5,29.84,SSE,155,0.0,0.0,54,0.00,,OVC041,0.00,0.00,VWS V14.01,2013-04-28 04:00:00,
2013-04-28 00:01:00,59.3,44.5,29.82,SSE,155,0.0,0.0,58,0.00,,OVC065,0.00,0.00,VWS V14.01,2013-04-28 04:01:00,
2013-04-28 00:06:00,59.2,44.5,29.82,SSE,155,0.0,0.0,58,0.00,,OVC065,0.00,0.00,VWS V14.01,2013-04-28 04:06:00,
2013-04-28 00:11:00,59.0,44.3,29.82,SSE,155,0.0,0.0,58,0.00,,OVC065,0.00,0.00,VWS V14.01,2013-04-28 04:11:00,
2013-04-28 00:16:00,59.0,45.2,29.82,SSE,155,0.0,0.0,60,0.00,,OVC065,0.00,0.00,VWS V14.01,2013-04-28 04:16:00,
2013-04-28 00:21:00,58.9,44.6,29.81,SSE,155,0.0,0.0,59,0.00,,OVC065,0.00,0.00,VWS V14.01,2013-04-28 04:21:00,
2013-04-28 00:26:00,58.7,44.9,29.81,SSE,155,0.0,0.0,60,0.00,,OVC065,0.00,0.00,VWS V14.01,2013-04-28 04:26:00,
2013-04-28 00:30:00,59.9,44.7,29.82,SSE,155,0.0,0.0,57,0.00,,OVC041,0.00,0.00,VWS V14.01,2013-04-28 04:30:00,
2013-04-28 00:31:00,58.6,44.8,29.81,SSE,155,0.0,0.0,60,0.00,,OVC065,0.00,0.00,VWS V14.01,2013-04-28 04:31:00,
2013-04-28 00:36:00,58.6,44.8,29.81,SSE,155,0.0,0.0,60,0.00,,OVC065,0.00,0.00,VWS V14.01,2013-04-28 04:36:00,
2013-04-28 00:41:00,58.4,45.0,29.81,SSE,155,0.0,0.0,61,0.00,,OVC065,0.00,0.00,VWS V14.01,2013-04-28 04:41:00,
2013-04-28 00:46:00,58.3,44.9,29.81,SSE,155,0.0,0.0,61,0.00,,OVC065,0.00,0.00,VWS V14.01,2013-04-28 04:46:00,
2013-04-28 00:51:00,58.1,45.2,29.80,SSE,155,0.0,0.0,62,0.00,,OVC065,0.00,0.00,VWS V14.01,2013-04-28 04:51:00,
2013-04-28 00:56:00,58.1,44.7,29.80,SSE,155,0.0,0.0,61,0.00,,OVC065,0.00,0.00,VWS V14.01,2013-04-28 04:56:00,
2013-04-28 01:00:00,59.2,44.5,29.82,SSE,155,0.0,0.0,58,0.00,,OVC041,0.00,0.00,VWS V14.01,2013-04-28 05:00:00,
2013-04-28 01:01:00,58.0,45.1,29.80,SSE,155,0.0,0.0,62,0.00,,OVC065,0.00,0.00,VWS V14.01,2013-04-28 05:01:00,
2013-04-28 01:06:00,57.8,45.3,29.80,SSE,155,0.0,0.0,63,0.00,,OVC065,0.00,0.00,VWS V14.01,2013-04-28 05:06:00,
2013-04-28 01:11:00,57.6,45.1,29.80,SSE,155,0.0,0.0,63,0.00,,OVC065,0.00,0.00,VWS V14.01,2013-04-28 05:11:00,
2013-04-28 01:16:00,57.5,45.0,29.80,SSE,155,0.0,0.0,63,0.00,,OVC065,0.00,0.00,VWS V14.01,2013-04-28 05:16:00,
2013-04-28 01:21:00,57.5,45.4,29.79,SSE,155,0.0,0.0,64,0.00,,OVC065,0.00,0.00,VWS V14.01,2013-04-28 05:21:00,
2013-04-28 01:26:00,57.3,45.7,29.79,SSE,155,0.0,0.0,65,0.00,,OVC065,0.00,0.00,VWS V14.01,2013-04-28 05:26:00,
2013-04-28 01:30:00,58.6,44.8,29.81,SSE,155,0.0,0.0,60,0.00,,OVC041,0.00,0.00,VWS V14.01,2013-04-28 05:30:00,
2013-04-28 01:31:00,57.3,45.7,29.79,SSE,155,0.0,0.0,65,0.00,,OVC065,0.00,0.00,VWS V14.01,2013-04-28 05:31:00,
2013-04-28 01:36:00,57.2,45.6,29.79,SSE,155,0.0,0.0,65,0.00,,OVC065,0.00,0.00,VWS V14.01,2013-04-28 05:36:00,
2013-04-28 01:41:00,57.0,45.4,29.79,SSE,155,0.0,0.0,65,0.00,,OVC065,0.00,0.00,VWS V14.01,2013-04-28 05:41:00,
2013-04-28 01:46:00,57.0,45.8,29.79,SSE,155,0.0,0.0,66,0.00,,OVC065,0.00,0.00,VWS V14.01,2013-04-28 05:46:00,
2013-04-28 01:51:00,57.0,45.8,29.78,SSE,155,0.0,0.0,66,0.00,,OVC065,0.00,0.00,VWS V14.01,2013-04-28 05:51:00,
2013-04-28 01:56:00,57.0,46.2,29.78,SSE,155,0.0,0.0,67,0.00,,OVC065,0.00,0.00,VWS V14.01,2013-04-28 05:56:00,
2013-04-28 02:00:00,57.8,45.3,29.80,SSE,155,0.0,0.0,63,0.00,,OVC041,0.00,0.00,VWS V14.01,2013-04-28 06:00:00,
2013-04-28 02:01:00,57.0,46.6,29.78,SSE,155,0.0,0.0,68,0.00,,OVC065,0.00,0.00,VWS V14.01,2013-04-28 06:01:00,
2013-04-28 02:06:00,56.9,46.5,29.77,SSE,155,0.0,0.0,68,0.00,,OVC065,0.00,0.00,VWS V14.01,2013-04-28 06:06:00,
2013-04-28 02:11:00,56.9,46.5,29.77,SSE,155,0.0,0.0,68,0.00,,OVC065,0.00,0.00,VWS V14.01,2013-04-28 06:11:00,
2013-04-28 02:16:00,56.7,46.7,29.77,SSE,155,0.0,0.0,69,0.00,,OVC065,0.00,0.00,VWS V14.01,2013-04-28 06:16:00,
2013-04-28 02:21:00,56.6,46.6,29.77,SSE,155,0.0,0.0,69,0.00,,OVC065,0.00,0.00,VWS V14.01,2013-04-28 06:21:00,
2013-04-28 02:26:00,56.5,46.5,29.77,SSE,155,0.0,0.0,69,0.00,,OVC065,0.00,0.00,VWS V14.01,2013-04-28 06:26:00,
2013-04-28 02:30:00,57.2,45.6,29.79,SSE,155,0.0,0.0,65,0.00,,OVC041,0.00,0.00,VWS V14.01,2013-04-28 06:30:00,
2013-04-28 02:31:00,56.5,46.8,29.77,SSE,155,0.0,0.0,70,0.00,,OVC065,0.00,0.00,VWS V14.01,2013-04-28 06:31:00,
2013-04-28 02:36:00,56.3,46.7,29.76,SSE,155,0.0,0.0,70,0.00,,OVC065,0.00,0.00,VWS V14.01,2013-04-28 06:36:00,
2013-04-28 02:41:00,56.3,46.7,29.76,SSE,155,0.0,0.0,70,0.00,,OVC065,0.00,0.00,VWS V14.01,2013-04-28 06:41:00,
2013-04-28 02:46:00,56.3,46.7,29.76,SSE,155,0.0,0.0,70,0.00,,OVC065,0.00,0.00,VWS V14.01,2013-04-28 06:46:00,
2013-04-28 02:51:00,56.2,46.6,29.75,SSE,155,0.0,0.0,70,0.00,,OVC065,0.00,0.00,VWS V14.01,2013-04-28 06:51:00,
2013-04-28 02:56:00,56.2,46.9,29.75,SSE,155,0.0,0.0,71,0.00,,OVC065,0.00,0.00,VWS V14.01,2013-04-28 06:56:00,
2013-04-28 03:00:00,56.9,46.5,29.77,SSE,155,0.0,0.0,68,0.00,,OVC041,0.00,0.00,VWS V14.01,2013-04-28 07:00:00,
2013-04-28 03:01:00,56.2,46.9,29.75,SSE,155,0.0,0.0,71,0.00,,OVC065,0.00,0.00,VWS V14.01,2013-04-28 07:01:00,
2013-04-28 03:06:00,56.2,46.9,29.75,SSE,155,0.0,0.0,71,0.00,,OVC065,0.00,0.00,VWS V14.01,2013-04-28 07:06:00,
2013-04-28 03:11:00,56.0,46.7,29.75,SSE,155,0.0,0.0,71,0.00,,OVC065,0.00,0.00,VWS V14.01,2013-04-28 07:11:00,
2013-04-28 03:16:00,56.0,46.7,29.75,SSE,155,0.0,0.0,71,0.00,,OVC065,0.00,0.00,VWS V14.01,2013-04-28 07:16:00,
2013-04-28 03:21:00,56.0,47.1,29.75,SSE,155,0.0,0.0,72,0.00,,OVC065,0.00,0.00,VWS V14.01,2013-04-28 07:21:00,
2013-04-28 03:26:00,56.0,47.1,29.75,SSE,155,0.0,0.0,72,0.00,,OVC065,0.00,0.00,VWS V14.01,2013-04-28 07:26:00,
2013-04-28 03:30:00,56.3,46.7,29.76,SSE,155,0.0,0.0,70,0.00,,OVC041,0.00,0.00,VWS V14.01,2013-04-28 07:30:00,
2013-04-28 03:31:00,56.0,47.5,29.75,SSE,155,0.0,0.0,73,0.00,,OVC065,0.00,0.00,VWS V14.01,2013-04-28 07:31:00,
2013-04-28 03:36:00,56.0,47.8,29.74,SSE,155,0.0,0.0,74,0.00,,OVC065,0.00,0.00,VWS V14.01,2013-04-28 07:36:00,
2013-04-28 03:41:00,55.9,47.7,29.74,SSE,155,0.0,0.0,74,0.00,,OVC065,0.00,0.00,VWS V14.01,2013-04-28 07:41:00,
2013-04-28 03:46:00,55.9,48.1,29.74,SSE,155,0.0,0.0,75,0.00,,OVC065,0.00,0.00,VWS V14.01,2013-04-28 07:46:00,
2013-04-28 03:51:00,55.9,48.5,29.74,SSE,155,0.0,0.0,76,0.00,,OVC065,0.00,0.00,VWS V14.01,2013-04-28 07:51:00,
2013-04-28 03:56:00,55.9,48.8,29.74,SSE,155,0.0,0.0,77,0.01,,OVC065,0.01,0.00,VWS V14.01,2013-04-28 07:56:00,
2013-04-28 04:00:00,56.2,46.9,29.75,SSE,155,0.0,0.0,71,0.00,,OVC041,0.00,0.00,VWS V14.01,2013-04-28 08:00:00,
2013-04-28 04:01:00,55.9,49.2,29.74,SSE,155,0.0,0.0,78,0.02,,OVC065,0.02,0.00,VWS V14.01,2013-04-28 08:01:00,
2013-04-28 04:06:00,55.7,48.6,29.73,SSE,155,0.0,0.0,77,0.03,,OVC065,0.03,0.00,VWS V14.01,2013-04-28 08:06:00,
2013-04-28 04:11:00,55.6,48.5,29.73,SSE,155,0.0,0.0,77,0.04,,OVC065,0.04,0.00,VWS V14.01,2013-04-28 08:11:00,
2013-04-28 04:16:00,55.4,48.7,29.73,SSE,155,0.0,0.0,78,0.04,,OVC065,0.04,0.00,VWS V14.01,2013-04-28 08:16:00,
2013-04-28 04:21:00,55.4,49.3,29.73,SSE,155,0.0,0.0,80,0.04,,OVC065,0.04,0.00,VWS V14.01,2013-04-28 08:21:00,
2013-04-28 04:26:00,55.3,49.6,29.73,SSE,155,0.0,0.0,81,0.04,,OVC065,0.04,0.00,VWS V14.01,2013-04-28 08:26:00,
2013-04-28 04:30:00,56.0,47.8,29.74,SSE,155,0.0,0.0,74,0.00,,OVC041,0.00,0.00,VWS V14.01,2013-04-28 08:30:00,
2013-04-28 04:31:00,55.3,49.9,29.73,SSE,155,0.0,0.0,82,0.04,,OVC065,0.04,0.00,VWS V14.01,2013-04-28 08:31:00,
2013-04-28 04:35:00,55.0,49.6,29.72,SSE,155,0.0,0.0,82,0.05,,OVC065,0.05,0.00,VWS V14.01,2013-04-28 08:35:00,
2013-04-28 04:40:00,54.8,49.4,29.72,SSE,155,0.0,0.0,82,0.05,,OVC065,0.05,0.00,VWS V14.01,2013-04-28 08:40:00,
2013-04-28 04:45:00,54.7,49.7,29.72,SSE,155,0.0,0.0,83,0.05,,OVC065,0.05,0.00,VWS V14.01,2013-04-28 08:45:00,
2013-04-28 04:50:00,54.5,49.5,29.72,SSE,155,0.0,0.0,83,0.05,,OVC065,0.05,0.00,VWS V14.01,2013-04-28 08:50:00,
2013-04-28 04:55:00,54.4,49.7,29.72,SSE,155,0.0,0.0,84,0.05,,OVC065,0.05,0.00,VWS V14.01,2013-04-28 08:55:00,
2013-04-28 05:00:00,54.2,49.5,29.72,SSE,155,0.0,0.0,84,0.05,,OVC065,0.05,0.00,VWS V14.01,2013-04-28 09:00:00,
2013-04-28 05:05:00,54.1,49.7,29.72,SSE,155,0.0,0.0,85,0.05,,OVC065,0.05,0.00,VWS V14.01,2013-04-28 09:05:00,
2013-04-28 05:10:00,53.9,49.5,29.72,SSE,155,0.0,0.0,85,0.02,,OVC065,0.05,0.00,VWS V14.01,2013-04-28 09:10:00,
2013-04-28 05:15:00,53.8,49.4,29.72,SSE,155,0.0,0.0,85,0.02,,OVC065,0.05,0.00,VWS V14.01,2013-04-28 09:15:00,
2013-04-28 05:20:00,53.6,49.2,29.72,SSE,155,0.0,0.0,85,0.02,,OVC065,0.05,0.00,VWS V14.01,2013-04-28 09:20:00,
2013-04-28 05:25:00,53.5,49.1,29.72,SSE,155,0.0,0.0,85,0.02,,OVC065,0.05,0.00,VWS V14.01,2013-04-28 09:25:00,
2013-04-28 05:30:00,55.0,49.6,29.72,SSE,155,0.0,0.0,82,0.05,,OVC041,0.05,0.00,VWS V14.01,2013-04-28 09:30:00,
2013-04-28 05:31:00,53.3,49.2,29.72,SSE,155,0.0,0.0,86,0.02,,OVC065,0.05,0.00,VWS V14.01,2013-04-28 09:31:00,
2013-04-28 05:36:00,53.2,49.1,29.71,SSE,155,0.0,0.0,86,0.00,,OVC065,0.05,0.00,VWS V14.01,2013-04-28 09:36:00,
2013-04-28 05:41:00,53.1,49.0,29.71,SSE,155,0.0,0.0,86,0.00,,OVC028,0.05,0.00,VWS V14.01,2013-04-28 09:41:00,
2013-04-28 05:46:00,52.9,48.8,29.71,SSE,155,0.0,0.0,86,0.00,,OVC028,0.05,0.00,VWS V14.01,2013-04-28 09:46:00,
2013-04-28 05:51:00,52.8,48.7,29.70,SSE,155,0.0,0.0,86,0.00,,OVC028,0.05,0.00,VWS V14.01,2013-04-28 09:51:00,
2013-04-28 05:56:00,52.6,48.5,29.70,SSE,155,0.0,0.0,86,0.00,,OVC028,0.05,0.00,VWS V14.01,2013-04-28 09:56:00,
2013-04-28 06:00:00,54.1,49.7,29.72,SSE,155,0.0,0.0,85,0.05,,OVC041,0.05,0.00,VWS V14.01,2013-04-28 10:00:00,
2013-04-28 06:01:00,52.5,48.4,29.70,SSE,155,0.0,0.0,86,0.01,,OVC028,0.06,0.00,VWS V14.01,2013-04-28 10:01:00,
2013-04-28 06:06:00,52.2,48.2,29.71,SSE,155,0.0,0.0,86,0.01,,OVC028,0.06,0.00,VWS V14.01,2013-04-28 10:06:00,
2013-04-28 06:11:00,52.0,48.0,29.71,SSE,155,0.0,0.0,86,0.01,,OVC028,0.06,0.00,VWS V14.01,2013-04-28 10:11:00,
2013-04-28 06:16:00,52.0,48.0,29.71,SSE,155,0.0,0.0,86,0.01,,OVC028,0.06,0.00,VWS V14.01,2013-04-28 10:16:00,
2013-04-28 06:21:00,51.9,47.8,29.71,SSE,155,0.0,0.0,86,0.01,,OVC028,0.06,0.00,VWS V14.01,2013-04-28 10:21:00,
2013-04-28 06:26:00,51.7,47.7,29.71,SSE,155,0.0,0.0,86,0.01,,OVC028,0.06,0.00,VWS V14.01,2013-04-28 10:26:00,
2013-04-28 06:30:00,53.2,49.1,29.71,SSE,155,0.0,0.0,86,0.02,,OVC041,0.05,0.00,VWS V14.01,2013-04-28 10:30:00,
2013-04-28 06:31:00,51.7,47.7,29.71,SSE,155,0.0,0.0,86,0.01,,OVC028,0.06,0.00,VWS V14.01,2013-04-28 10:31:00,
2013-04-28 06:36:00,51.6,47.9,29.70,SSE,155,0.0,0.0,87,0.01,,OVC028,0.06,0.00,VWS V14.01,2013-04-28 10:36:00,
2013-04-28 06:40:00,51.6,47.9,29.70,SSE,155,0.0,0.0,87,0.01,,OVC028,0.06,0.00,VWS V14.01,2013-04-28 10:40:00,
2013-04-28 06:46:00,51.4,47.7,29.70,SSE,155,0.0,0.0,87,0.01,,OVC028,0.06,0.00,VWS V14.01,2013-04-28 10:46:00,
2013-04-28 06:50:00,51.4,47.7,29.70,ESE,120,0.0,0.0,87,0.01,,OVC028,0.06,0.00,VWS V14.01,2013-04-28 10:50:00,
2013-04-28 06:55:00,51.4,47.7,29.70,NE,45,0.0,0.0,87,0.01,,OVC028,0.06,0.00,VWS V14.01,2013-04-28 10:55:00,
2013-04-28 07:00:00,51.3,47.9,29.70,NE,45,0.0,0.0,88,0.02,,OVC028,0.07,0.00,VWS V14.01,2013-04-28 11:00:00,
2013-04-28 07:05:00,51.3,47.9,29.69,NE,45,0.0,0.0,88,0.02,,OVC028,0.07,0.00,VWS V14.01,2013-04-28 11:05:00,
2013-04-28 07:10:00,51.1,47.7,29.69,South,175,0.0,0.0,88,0.02,,OVC028,0.08,7.00,VWS V14.01,2013-04-28 11:10:00,
2013-04-28 07:15:00,51.0,47.6,29.69,SSE,163,0.0,0.0,88,0.03,,OVC028,0.09,12.00,VWS V14.01,2013-04-28 11:15:00,
2013-04-28 07:20:00,50.8,47.4,29.69,SSE,161,0.0,0.0,88,0.03,,OVC028,0.09,16.00,VWS V14.01,2013-04-28 11:20:00,
2013-04-28 07:25:00,50.8,47.7,29.69,SSE,161,0.0,0.0,89,0.04,,OVC028,0.10,14.00,VWS V14.01,2013-04-28 11:25:00,
2013-04-28 07:30:00,50.7,47.6,29.69,SSE,161,0.0,0.0,89,0.04,,OVC028,0.10,9.00,VWS V14.01,2013-04-28 11:30:00,
2013-04-28 07:35:00,50.7,47.6,29.70,SSE,161,0.0,0.0,89,0.04,,OVC028,0.10,5.00,VWS V14.01,2013-04-28 11:35:00,
2013-04-28 07:40:00,50.5,47.4,29.70,SSE,161,0.0,0.0,89,0.04,,OVC028,0.10,5.00,VWS V14.01,2013-04-28 11:40:00,
2013-04-28 07:45:00,50.4,47.3,29.70,ESE,119,0.0,0.0,89,0.05,,OVC028,0.11,5.00,VWS V14.01,2013-04-28 11:45:00,
2013-04-28 07:50:00,50.4,47.6,29.71,ESE,119,0.0,0.0,90,0.06,,OVC028,0.12,5.00,VWS V14.01,2013-04-28 11:50:00,
2013-04-28 07:55:00,50.4,47.6,29.71,ESE,119,0.0,0.0,90,0.06,,OVC028,0.12,7.00,VWS V14.01,2013-04-28 11:55:00,
2013-04-28 08:00:00,50.2,47.4,29.71,ESE,119,0.0,0.0,90,0.07,,OVC028,0.13,5.00,VWS V14.01,2013-04-28 12:00:00,
2013-04-28 08:05:00,50.2,47.4,29.71,ESE,119,0.0,0.0,90,0.07,,OVC028,0.13,5.00,VWS V14.01,2013-04-28 12:05:00,
2013-04-28 08:10:00,50.1,47.3,29.71,ESE,119,0.0,0.0,90,0.06,,OVC028,0.13,5.00,VWS V14.01,2013-04-28 12:10:00,
2013-04-28 08:15:00,50.1,47.3,29.71,ESE,119,0.0,0.0,90,0.07,,OVC028,0.14,5.00,VWS V14.01,2013-04-28 12:15:00,
2013-04-28 08:20:00,50.1,47.6,29.71,ESE,119,0.0,0.0,91,0.07,,OVC028,0.14,5.00,VWS V14.01,2013-04-28 12:20:00,
2013-04-28 08:25:00,50.1,47.6,29.71,ESE,119,0.0,0.0,91,0.07,,OVC028,0.14,7.00,VWS V14.01,2013-04-28 12:25:00,
2013-04-28 08:30:00,50.1,47.6,29.71,East,90,0.0,0.0,91,0.07,,OVC028,0.14,9.00,VWS V14.01,2013-04-28 12:30:00,
2013-04-28 08:35:00,49.9,47.4,29.71,East,92,0.0,0.0,91,0.07,,OVC028,0.14,9.00,VWS V14.01,2013-04-28 12:35:00,
2013-04-28 08:40:00,49.9,47.4,29.71,East,92,0.0,0.0,91,0.04,,OVC028,0.14,11.00,VWS V14.01,2013-04-28 12:40:00,
2013-04-28 08:45:00,49.9,47.4,29.71,East,92,0.0,0.0,91,0.04,,OVC028,0.14,12.00,VWS V14.01,2013-04-28 12:45:00,
2013-04-28 08:50:00,49.9,47.7,29.70,East,92,0.0,0.0,92,0.04,,OVC028,0.14,18.00,VWS V14.01,2013-04-28 12:50:00,
2013-04-28 08:55:00,49.9,47.7,29.70,East,92,0.0,0.0,92,0.04,,OVC028,0.14,19.00,VWS V14.01,2013-04-28 12:55:00,
2013-04-28 09:00:00,49.9,47.7,29.70,East,92,0.0,0.0,92,0.04,,OVC028,0.14,19.00,VWS V14.01,2013-04-28 13:00:00,
2013-04-28 09:05:00,49.9,47.7,29.70,East,92,0.0,0.0,92,0.05,,OVC028,0.15,25.00,VWS V14.01,2013-04-28 13:05:00,
2013-04-28 09:10:00,50.1,47.9,29.70,East,92,0.0,0.0,92,0.02,,OVC028,0.15,28.00,VWS V14.01,2013-04-28 13:10:00,
2013-04-28 09:15:00,50.1,47.9,29.70,East,94,0.0,0.0,92,0.02,,OVC028,0.15,30.00,VWS V14.01,2013-04-28 13:15:00,
2013-04-28 09:20:00,50.1,47.9,29.70,East,94,0.0,0.0,92,0.02,,OVC028,0.15,26.00,VWS V14.01,2013-04-28 13:20:00,
2013-04-28 09:25:00,50.1,48.2,29.70,East,94,0.0,0.0,93,0.02,,OVC028,0.15,32.00,VWS V14.01,2013-04-28 13:25:00,
2013-04-28 09:30:00,50.2,48.3,29.70,East,94,0.0,0.0,93,0.02,,OVC028,0.15,39.00,VWS V14.01,2013-04-28 13:30:00,
2013-04-28 09:35:00,50.2,48.3,29.68,ESE,105,0.0,0.0,93,0.02,,OVC028,0.15,46.00,VWS V14.01,2013-04-28 13:35:00,
2013-04-28 09:40:00,50.2,48.3,29.68,ESE,105,0.0,0.0,93,0.01,,OVC028,0.15,51.00,VWS V14.01,2013-04-28 13:40:00,
2013-04-28 09:45:00,50.4,48.5,29.68,ESE,105,0.0,0.0,93,0.01,,OVC028,0.15,67.00,VWS V14.01,2013-04-28 13:45:00,
2013-04-28 09:50:00,50.5,48.6,29.68,East,84,0.0,0.0,93,0.01,,OVC028,0.15,65.00,VWS V14.01,2013-04-28 13:50:00,
2013-04-28 09:55:00,50.5,48.6,29.68,ESE,114,0.0,0.0,93,0.01,,OVC028,0.15,60.00,VWS V14.01,2013-04-28 13:55:00,
2013-04-28 10:00:00,50.5,48.6,29.68,ESE,115,0.0,0.0,93,0.01,,OVC028,0.15,54.00,VWS V14.01,2013-04-28 14:00:00,
2013-04-28 10:05:00,50.5,48.6,29.68,ESE,115,0.0,0.0,93,0.01,,OVC028,0.15,69.00,VWS V14.01,2013-04-28 14:05:00,
2013-04-28 10:10:00,50.7,48.8,29.68,ESE,115,0.0,0.0,93,0.00,,OVC028,0.15,51.00,VWS V14.01,2013-04-28 14:10:00,
2013-04-28 10:15:00,50.7,48.8,29.68,ESE,120,0.0,0.0,93,0.00,,,0.15,76.00,VWS V14.01,2013-04-28 14:15:00,
2013-04-28 10:20:00,50.8,48.8,29.68,ESE,120,0.0,0.0,93,0.00,,,0.15,76.00,VWS V14.01,2013-04-28 14:20:00,
2013-04-28 10:25:00,50.8,48.8,29.68,ESE,121,0.0,0.0,93,0.00,,,0.15,72.00,VWS V14.01,2013-04-28 14:25:00,
2013-04-28 10:30:00,50.8,49.1,29.68,ESE,121,0.0,0.0,94,0.00,,,0.15,77.00,VWS V14.01,2013-04-28 14:30:00,
2013-04-28 10:35:00,51.0,49.3,29.67,ESE,121,0.0,0.0,94,0.00,,,0.15,109.00,VWS V14.01,2013-04-28 14:35:00,
2013-04-28 10:40:00,51.1,49.4,29.67,ESE,121,0.0,0.0,94,0.00,,,0.15,120.00,VWS V14.01,2013-04-28 14:40:00,
2013-04-28 10:45:00,51.1,49.4,29.67,ESE,121,0.0,0.0,94,0.00,,,0.15,135.00,VWS V14.01,2013-04-28 14:45:00,
2013-04-28 10:50:00,51.3,49.6,29.67,ESE,121,2.0,0.0,94,0.00,,,0.15,128.00,VWS V14.01,2013-04-28 14:50:00,
2013-04-28 10:55:00,51.4,49.7,29.67,East,86,0.0,0.0,94,0.00,,,0.15,148.00,VWS V14.01,2013-04-28 14:55:00,
2013-04-28 11:00:00,51.6,49.9,29.67,East,79,0.0,0.0,94,0.00,,,0.15,160.00,VWS V14.01,2013-04-28 15:00:00,
2013-04-28 11:05:00,51.9,50.2,29.66,East,79,0.0,0.0,94,0.00,,,0.15,192.00,VWS V14.01,2013-04-28 15:05:00,
2013-04-28 11:10:00,52.2,50.5,29.66,East,80,1.0,0.0,94,0.00,,,0.15,190.00,VWS V14.01,2013-04-28 15:10:00,
2013-04-28 11:15:00,52.3,50.6,29.66,East,80,0.0,0.0,94,0.00,,,0.15,221.00,VWS V14.01,2013-04-28 15:15:00,
2013-04-28 11:20:00,52.5,50.8,29.66,East,94,0.0,0.0,94,0.00,,,0.15,186.00,VWS V14.01,2013-04-28 15:20:00,
2013-04-28 11:25:00,52.8,51.1,29.66,ESE,104,0.0,0.0,94,0.00,,,0.15,160.00,VWS V14.01,2013-04-28 15:25:00,
2013-04-28 11:30:00,52.9,51.2,29.66,ESE,104,0.0,0.0,94,0.00,,,0.15,156.00,VWS V14.01,2013-04-28 15:30:00,
2013-04-28 11:35:00,53.1,51.4,29.65,ENE,74,0.0,0.0,94,0.00,,,0.15,149.00,VWS V14.01,2013-04-28 15:35:00,
2013-04-28 11:40:00,53.2,51.5,29.65,SE,136,0.0,0.0,94,0.00,,,0.15,139.00,VWS V14.01,2013-04-28 15:40:00,
2013-04-28 11:45:00,53.2,51.5,29.65,ENE,78,0.0,0.0,94,0.00,,,0.15,118.00,VWS V14.01,2013-04-28 15:45:00,
2013-04-28 11:50:00,53.3,51.6,29.66,ENE,78,0.0,0.0,94,0.00,,,0.15,125.00,VWS V14.01,2013-04-28 15:50:00,
2013-04-28 11:55:00,53.3,51.6,29.66,ENE,78,0.0,0.0,94,0.00,,,0.15,137.00,VWS V14.01,2013-04-28 15:55:00,
2013-04-28 12:00:00,53.5,51.8,29.66,ENE,65,0.0,0.0,94,0.00,,,0.15,144.00,VWS V14.01,2013-04-28 16:00:00,
2013-04-28 12:05:00,53.5,51.5,29.66,SE,128,0.0,0.0,93,0.00,,,0.15,128.00,VWS V14.01,2013-04-28 16:05:00,
2013-04-28 12:10:00,53.6,51.6,29.66,SE,128,0.0,0.0,93,0.00,,,0.15,144.00,VWS V14.01,2013-04-28 16:10:00,
2013-04-28 12:15:00,53.6,51.6,29.66,SE,134,1.0,0.0,93,0.00,,,0.15,134.00,VWS V14.01,2013-04-28 16:15:00,
2013-04-28 12:20:00,53.8,51.8,29.65,SE,130,0.0,0.0,93,0.00,,,0.15,142.00,VWS V14.01,2013-04-28 16:20:00,
2013-04-28 12:25:00,53.9,51.9,29.65,SE,130,0.0,0.0,93,0.00,,,0.15,141.00,VWS V14.01,2013-04-28 16:25:00,
2013-04-28 12:30:00,53.9,51.9,29.65,East,101,0.0,0.0,93,0.00,,,0.15,113.00,VWS V14.01,2013-04-28 16:30:00,
2013-04-28 12:35:00,54.1,52.1,29.65,East,101,0.0,0.0,93,0.00,,,0.15,118.00,VWS V14.01,2013-04-28 16:35:00,
2013-04-28 12:40:00,54.4,52.4,29.65,ENE,77,0.0,0.0,93,0.00,,,0.15,113.00,VWS V14.01,2013-04-28 16:40:00,
2013-04-28 12:45:00,54.4,52.1,29.65,ENE,78,0.0,0.0,92,0.00,,,0.15,116.00,VWS V14.01,2013-04-28 16:45:00,
2013-04-28 12:50:00,54.4,52.1,29.65,ENE,78,0.0,0.0,92,0.00,,,0.15,118.00,VWS V14.01,2013-04-28 16:50:00,
2013-04-28 12:55:00,54.5,52.2,29.65,ESE,104,0.0,0.0,92,0.00,,,0.15,102.00,VWS V14.01,2013-04-28 16:55:00,
2013-04-28 13:00:00,54.5,52.2,29.65,ESE,104,0.0,0.0,92,0.00,,,0.15,111.00,VWS V14.01,2013-04-28 17:00:00,
2013-04-28 13:05:00,54.5,51.9,29.65,ESE,104,0.0,0.0,91,0.00,,,0.15,113.00,VWS V14.01,2013-04-28 17:05:00,
2013-04-28 13:10:00,54.7,52.1,29.65,ESE,104,0.0,0.0,91,0.00,,,0.15,105.00,VWS V14.01,2013-04-28 17:10:00,
2013-04-28 13:15:00,54.7,52.1,29.65,ESE,104,0.0,0.0,91,0.00,,OVC007,0.15,98.00,VWS V14.01,2013-04-28 17:15:00,
2013-04-28 13:20:00,54.7,52.1,29.65,ESE,104,0.0,0.0,91,0.00,,OVC007,0.15,79.00,VWS V14.01,2013-04-28 17:20:00,
2013-04-28 13:25:00,54.8,51.9,29.65,ESE,103,0.0,0.0,90,0.00,,OVC007,0.15,69.00,VWS V14.01,2013-04-28 17:25:00,
2013-04-28 13:30:00,54.8,51.9,29.65,ESE,104,0.0,0.0,90,0.00,,OVC007,0.15,76.00,VWS V14.01,2013-04-28 17:30:00,
2013-04-28 13:35:00,54.8,51.9,29.65,ESE,104,0.0,0.0,90,0.00,,OVC007,0.15,86.00,VWS V14.01,2013-04-28 17:35:00,
2013-04-28 13:40:00,54.8,51.9,29.65,ESE,103,0.0,0.0,90,0.00,,OVC007,0.15,88.00,VWS V14.01,2013-04-28 17:40:00,
2013-04-28 13:45:00,54.8,51.9,29.65,ESE,103,0.0,0.0,90,0.00,,OVC007,0.15,86.00,VWS V14.01,2013-04-28 17:45:00,
2013-04-28 13:50:00,54.8,51.6,29.65,ESE,103,0.0,0.0,89,0.00,,OVC007,0.15,91.00,VWS V14.01,2013-04-28 17:50:00,
2013-04-28 13:55:00,55.0,51.8,29.65,ESE,103,0.0,0.0,89,0.00,,OVC007,0.15,88.00,VWS V14.01,2013-04-28 17:55:00,
2013-04-28 14:00:00,55.1,51.9,29.65,ESE,103,0.0,0.0,89,0.00,,OVC007,0.15,105.00,VWS V14.01,2013-04-28 18:00:00,
2013-04-28 14:05:00,55.1,51.9,29.64,ESE,103,0.0,0.0,89,0.00,,OVC007,0.15,146.00,VWS V14.01,2013-04-28 18:05:00,
2013-04-28 14:10:00,55.3,52.1,29.64,ESE,103,0.0,0.0,89,0.00,,OVC007,0.15,162.00,VWS V14.01,2013-04-28 18:10:00,
2013-04-28 14:15:00,55.4,52.2,29.64,ESE,103,0.0,0.0,89,0.00,,OVC007,0.15,120.00,VWS V14.01,2013-04-28 18:15:00,
2013-04-28 14:20:00,55.4,52.2,29.64,ESE,103,0.0,0.0,89,0.00,,OVC007,0.15,116.00,VWS V14.01,2013-04-28 18:20:00,
2013-04-28 14:25:00,55.6,52.4,29.64,ESE,103,0.0,0.0,89,0.00,,OVC007,0.15,114.00,VWS V14.01,2013-04-28 18:25:00,
2013-04-28 14:30:00,55.6,52.1,29.64,ESE,103,0.0,0.0,88,0.00,,OVC007,0.15,105.00,VWS V14.01,2013-04-28 18:30:00,
2013-04-28 14:35:00,55.7,52.2,29.64,ESE,103,0.0,0.0,88,0.00,,OVC007,0.15,100.00,VWS V14.01,2013-04-28 18:35:00,
2013-04-28 14:40:00,55.7,52.2,29.64,ESE,103,0.0,0.0,88,0.00,,OVC007,0.15,95.00,VWS V14.01,2013-04-28 18:40:00,
2013-04-28 14:45:00,55.7,52.2,29.64,ESE,103,0.0,0.0,88,0.00,,OVC007,0.15,93.00,VWS V14.01,2013-04-28 18:45:00,
2013-04-28 14:50:00,55.9,52.4,29.64,ESE,103,0.0,0.0,88,0.00,,OVC007,0.15,105.00,VWS V14.01,2013-04-28 18:50:00,
2013-04-28 14:55:00,55.9,52.4,29.64,ESE,103,0.0,0.0,88,0.00,,OVC007,0.15,102.00,VWS V14.01,2013-04-28 18:55:00,
2013-04-28 15:00:00,56.0,52.5,29.64,ESE,103,0.0,0.0,88,0.00,,OVC007,0.15,91.00,VWS V14.01,2013-04-28 19:00:00,
2013-04-28 15:05:00,55.9,52.1,29.64,ESE,103,0.0,0.0,87,0.00,,OVC007,0.15,72.00,VWS V14.01,2013-04-28 19:05:00,
2013-04-28 15:10:00,56.0,52.2,29.64,ESE,103,0.0,0.0,87,0.00,,,0.15,65.00,VWS V14.01,2013-04-28 19:10:00,
2013-04-28 15:15:00,55.9,52.1,29.64,ESE,104,0.0,0.0,87,0.00,,,0.15,83.00,VWS V14.01,2013-04-28 19:15:00,
2013-04-28 15:20:00,55.9,52.1,29.64,ESE,103,0.0,0.0,87,0.00,,,0.15,144.00,VWS V14.01,2013-04-28 19:20:00,
2013-04-28 15:25:00,56.0,52.2,29.64,ESE,103,0.0,0.0,87,0.00,,,0.15,181.00,VWS V14.01,2013-04-28 19:25:00,
2013-04-28 15:30:00,56.0,52.2,29.64,ESE,103,0.0,0.0,87,0.00,,,0.15,149.00,VWS V14.01,2013-04-28 19:30:00,
2013-04-28 15:35:00,56.0,52.2,29.64,ESE,103,0.0,0.0,87,0.00,,,0.15,134.00,VWS V14.01,2013-04-28 19:35:00,
2013-04-28 15:40:00,56.2,52.4,29.64,ESE,103,0.0,0.0,87,0.00,,,0.15,109.00,VWS V14.01,2013-04-28 19:40:00,
2013-04-28 15:45:00,56.2,52.4,29.64,ESE,103,0.0,0.0,87,0.00,,,0.15,120.00,VWS V14.01,2013-04-28 19:45:00,
2013-04-28 15:50:00,56.3,52.5,29.63,ESE,103,0.0,0.0,87,0.00,,,0.15,130.00,VWS V14.01,2013-04-28 19:50:00,
2013-04-28 15:55:00,56.5,52.7,29.63,ESE,103,0.0,0.0,87,0.00,,,0.15,118.00,VWS V14.01,2013-04-28 19:55:00,
2013-04-28 16:00:00,56.5,52.7,29.63,ESE,103,0.0,0.0,87,0.00,,,0.15,116.00,VWS V14.01,2013-04-28 20:00:00,
2013-04-28 16:05:00,56.5,52.7,29.63,ESE,103,0.0,0.0,87,0.00,,,0.15,88.00,VWS V14.01,2013-04-28 20:05:00,
2013-04-28 16:10:00,56.6,52.8,29.63,ESE,103,0.0,0.0,87,0.00,,,0.15,98.00,VWS V14.01,2013-04-28 20:10:00,
2013-04-28 16:15:00,56.6,52.5,29.63,ESE,103,0.0,0.0,86,0.00,,,0.15,102.00,VWS V14.01,2013-04-28 20:15:00,
2013-04-28 16:20:00,56.6,52.5,29.63,ESE,103,0.0,0.0,86,0.00,,,0.15,90.00,VWS V14.01,2013-04-28 20:20:00,
2013-04-28 16:25:00,56.6,52.5,29.63,ESE,103,0.0,0.0,86,0.00,,OVC011,0.15,97.00,VWS V14.01,2013-04-28 20:25:00,
2013-04-28 16:30:00,56.6,52.5,29.63,ESE,103,0.0,0.0,86,0.00,,OVC011,0.15,153.00,VWS V14.01,2013-04-28 20:30:00,
2013-04-28 16:35:00,56.6,52.5,29.62,ESE,103,0.0,0.0,86,0.00,,OVC011,0.15,172.00,VWS V14.01,2013-04-28 20:35:00,
2013-04-28 16:40:00,56.7,52.6,29.62,ESE,103,1.0,0.0,86,0.00,,OVC011,0.15,123.00,VWS V14.01,2013-04-28 20:40:00,
2013-04-28 16:45:00,56.6,52.2,29.62,North,5,0.0,0.0,85,0.00,,OVC011,0.15,142.00,VWS V14.01,2013-04-28 20:45:00,
2013-04-28 16:50:00,56.6,52.2,29.62,North,5,0.0,0.0,85,0.00,,OVC011,0.15,234.00,VWS V14.01,2013-04-28 20:50:00,
2013-04-28 16:55:00,56.7,52.2,29.62,North,5,0.0,0.0,85,0.00,,OVC011,0.15,248.00,VWS V14.01,2013-04-28 20:55:00,
2013-04-28 17:00:00,56.9,52.4,29.62,North,360,0.0,0.0,85,0.00,,OVC011,0.15,316.00,VWS V14.01,2013-04-28 21:00:00,
2013-04-28 17:05:00,57.0,52.5,29.62,North,360,0.0,0.0,85,0.00,,OVC011,0.15,374.00,VWS V14.01,2013-04-28 21:05:00,
2013-04-28 17:10:00,57.3,52.8,29.62,NNW,342,0.0,0.0,85,0.00,,OVC011,0.15,262.00,VWS V14.01,2013-04-28 21:10:00,
2013-04-28 17:15:00,57.5,53.0,29.62,NNW,342,0.0,0.0,85,0.00,,OVC013,0.15,202.00,VWS V14.01,2013-04-28 21:15:00,
2013-04-28 17:20:00,57.6,52.8,29.62,NNW,342,0.0,0.0,84,0.00,,OVC013,0.15,160.00,VWS V14.01,2013-04-28 21:20:00,
2013-04-28 17:25:00,57.8,52.7,29.61,NNW,342,0.0,0.0,83,0.00,,OVC013,0.15,100.00,VWS V14.01,2013-04-28 21:25:00,
2013-04-28 17:30:00,58.0,52.5,29.61,NNW,336,0.0,0.0,82,0.00,,OVC013,0.15,90.00,VWS V14.01,2013-04-28 21:30:00,
2013-04-28 17:35:00,58.0,52.5,29.61,NNW,336,0.0,0.0,82,0.00,,OVC013,0.15,81.00,VWS V14.01,2013-04-28 21:35:00,
2013-04-28 17:40:00,58.0,52.2,29.61,NNW,336,0.0,0.0,81,0.00,,OVC013,0.15,79.00,VWS V14.01,2013-04-28 21:40:00,
2013-04-28 17:45:00,58.0,52.2,29.61,NNW,331,0.0,0.0,81,0.00,,OVC013,0.15,47.00,VWS V14.01,2013-04-28 21:45:00,
2013-04-28 17:50:00,57.8,52.0,29.61,NNW,331,0.0,0.0,81,0.00,,OVC015,0.15,44.00,VWS V14.01,2013-04-28 21:50:00,
2013-04-28 17:54:00,57.8,52.0,29.61,NNW,331,0.0,0.0,81,0.00,,OVC015,0.15,44.00,VWS V14.01,2013-04-28 21:54:00,
2013-04-28 17:59:00,57.6,51.8,29.61,NNW,331,0.0,0.0,81,0.00,,OVC015,0.15,47.00,VWS V14.01,2013-04-28 21:59:00,
2013-04-28 18:00:00,57.0,52.5,29.62,North,360,0.0,0.0,85,0.00,,OVC041,0.15,343.00,VWS V14.01,2013-04-28 22:00:00,
2013-04-28 18:04:00,57.6,51.8,29.61,NNW,331,0.0,0.0,81,0.00,,OVC015,0.15,44.00,VWS V14.01,2013-04-28 22:04:00,
2013-04-28 18:09:00,57.5,52.1,29.62,NNW,331,0.0,0.0,82,0.00,,OVC015,0.15,49.00,VWS V14.01,2013-04-28 22:09:00,
2013-04-28 18:14:00,57.5,52.1,29.62,NNW,331,0.0,0.0,82,0.00,,OVC015,0.15,49.00,VWS V14.01,2013-04-28 22:14:00,
2013-04-28 18:19:00,57.5,52.1,29.62,NNW,331,0.0,0.0,82,0.00,,OVC015,0.15,35.00,VWS V14.01,2013-04-28 22:19:00,
2013-04-28 18:24:00,57.5,52.1,29.62,NNW,331,0.0,0.0,82,0.00,,OVC015,0.15,26.00,VWS V14.01,2013-04-28 22:24:00,
2013-04-28 18:29:00,57.3,51.9,29.62,NNW,331,0.0,0.0,82,0.00,,OVC015,0.15,30.00,VWS V14.01,2013-04-28 22:29:00,
2013-04-28 18:30:00,58.0,52.5,29.61,NNW,336,0.0,0.0,82,0.00,,OVC041,0.15,81.00,VWS V14.01,2013-04-28 22:30:00,
2013-04-28 18:34:00,57.3,51.9,29.62,NNW,331,1.0,0.0,82,0.00,,OVC015,0.15,30.00,VWS V14.01,2013-04-28 22:34:00,
2013-04-28 18:39:00,57.2,52.1,29.62,NNW,331,0.0,0.0,83,0.00,,OVC015,0.15,40.00,VWS V14.01,2013-04-28 22:39:00,
2013-04-28 18:44:00,57.0,51.9,29.62,NNW,331,0.0,0.0,83,0.00,,OVC015,0.15,46.00,VWS V14.01,2013-04-28 22:44:00,
2013-04-28 18:49:00,57.0,51.9,29.62,NNW,331,0.0,0.0,83,0.00,,OVC015,0.15,53.00,VWS V14.01,2013-04-28 22:49:00,
2013-04-28 18:54:00,56.9,52.1,29.62,NNW,331,0.0,0.0,84,0.00,,OVC015,0.15,47.00,VWS V14.01,2013-04-28 22:54:00,
2013-04-28 18:59:00,56.9,52.1,29.62,NNW,331,0.0,0.0,84,0.00,,OVC015,0.15,56.00,VWS V14.01,2013-04-28 22:59:00,
2013-04-28 19:00:00,57.6,52.2,29.62,NNW,331,0.0,0.0,82,0.00,,OVC041,0.15,44.00,VWS V14.01,2013-04-28 23:00:00,
2013-04-28 19:04:00,56.9,52.1,29.62,NNW,331,0.0,0.0,84,0.00,,OVC015,0.15,39.00,VWS V14.01,2013-04-28 23:04:00,
2013-04-28 19:09:00,56.9,52.1,29.62,NNW,331,0.0,0.0,84,0.00,,OVC015,0.15,33.00,VWS V14.01,2013-04-28 23:09:00,
2013-04-28 19:14:00,56.7,51.9,29.62,NNW,331,0.0,0.0,84,0.00,,OVC015,0.15,30.00,VWS V14.01,2013-04-28 23:14:00,
2013-04-28 19:19:00,56.7,51.9,29.62,NNW,331,0.0,0.0,84,0.00,,OVC017,0.15,28.00,VWS V14.01,2013-04-28 23:19:00,
2013-04-28 19:24:00,56.7,51.9,29.62,NNW,331,0.0,0.0,84,0.00,,OVC017,0.15,21.00,VWS V14.01,2013-04-28 23:24:00,
2013-04-28 19:29:00,56.7,51.9,29.62,NNW,331,0.0,0.0,84,0.00,,OVC017,0.15,21.00,VWS V14.01,2013-04-28 23:29:00,
2013-04-28 19:30:00,57.2,51.8,29.62,NNW,331,0.0,0.0,82,0.00,,OVC041,0.15,32.00,VWS V14.01,2013-04-28 23:30:00,
2013-04-28 19:34:00,56.6,52.2,29.62,NNW,331,0.0,0.0,85,0.00,,OVC017,0.15,23.00,VWS V14.01,2013-04-28 23:34:00,
2013-04-28 19:39:00,56.6,52.2,29.62,NNW,331,0.0,0.0,85,0.00,,OVC017,0.15,18.00,VWS V14.01,2013-04-28 23:39:00,
2013-04-28 19:44:00,56.6,52.2,29.62,NNW,331,0.0,0.0,85,0.00,,OVC017,0.15,18.00,VWS V14.01,2013-04-28 23:44:00,
2013-04-28 19:49:00,56.6,52.2,29.62,NNW,331,0.0,0.0,85,0.00,,OVC017,0.15,21.00,VWS V14.01,2013-04-28 23:49:00,
2013-04-28 19:54:00,56.5,52.0,29.62,NNW,331,0.0,0.0,85,0.00,,OVC017,0.15,19.00,VWS V14.01,2013-04-28 23:54:00,
2013-04-28 19:59:00,56.5,52.0,29.62,NNW,331,0.0,0.0,85,0.00,,OVC017,0.15,18.00,VWS V14.01,2013-04-28 23:59:00,
2013-04-28 20:00:00,56.9,52.1,29.62,NNW,331,0.0,0.0,84,0.00,,OVC041,0.15,37.00,VWS V14.01,2013-04-29 00:00:00,
2013-04-28 20:04:00,56.5,52.0,29.62,NNW,331,0.0,0.0,85,0.00,,OVC017,0.15,14.00,VWS V14.01,2013-04-29 00:04:00,
2013-04-28 20:09:00,56.5,52.0,29.62,NNW,331,0.0,0.0,85,0.00,,OVC017,0.15,11.00,VWS V14.01,2013-04-29 00:09:00,
2013-04-28 20:14:00,56.5,52.0,29.62,NNW,331,0.0,0.0,85,0.00,,OVC017,0.15,7.00,VWS V14.01,2013-04-29 00:14:00,
2013-04-28 20:19:00,56.3,51.9,29.62,NNW,331,0.0,0.0,85,0.00,,OVC017,0.15,5.00,VWS V14.01,2013-04-29 00:19:00,
2013-04-28 20:24:00,56.3,51.9,29.62,NNW,331,0.0,0.0,85,0.00,,OVC019,0.15,5.00,VWS V14.01,2013-04-29 00:24:00,
2013-04-28 20:29:00,56.3,51.9,29.62,NNW,331,0.0,0.0,85,0.00,,OVC019,0.15,0.00,VWS V14.01,2013-04-29 00:29:00,
2013-04-28 20:30:00,56.6,52.2,29.62,NNW,331,0.0,0.0,85,0.00,,OVC041,0.15,23.00,VWS V14.01,2013-04-29 00:30:00,
2013-04-28 20:34:00,56.3,51.9,29.62,NNW,331,0.0,0.0,85,0.00,,OVC019,0.15,0.00,VWS V14.01,2013-04-29 00:34:00,
2013-04-28 20:39:00,56.2,51.8,29.63,NNW,331,0.0,0.0,85,0.00,,OVC019,0.15,0.00,VWS V14.01,2013-04-29 00:39:00,
2013-04-28 20:44:00,56.2,51.8,29.63,NNW,331,0.0,0.0,85,0.00,,OVC019,0.15,0.00,VWS V14.01,2013-04-29 00:44:00,
2013-04-28 20:49:00,56.2,51.8,29.63,NNW,331,0.0,0.0,85,0.00,,OVC019,0.15,0.00,VWS V14.01,2013-04-29 00:49:00,
2013-04-28 20:54:00,56.0,51.6,29.63,NNW,331,0.0,0.0,85,0.00,,OVC019,0.15,0.00,VWS V14.01,2013-04-29 00:54:00,
2013-04-28 20:59:00,56.0,51.6,29.63,NNW,331,0.0,0.0,85,0.00,,OVC019,0.15,0.00,VWS V14.01,2013-04-29 00:59:00,
2013-04-28 21:00:00,56.5,52.0,29.62,NNW,331,0.0,0.0,85,0.00,,OVC041,0.15,14.00,VWS V14.01,2013-04-29 01:00:00,
2013-04-28 21:04:00,56.0,51.6,29.63,NNW,331,0.0,0.0,85,0.00,,OVC019,0.15,0.00,VWS V14.01,2013-04-29 01:04:00,
2013-04-28 21:09:00,55.9,51.5,29.64,NNW,331,0.0,0.0,85,0.00,,OVC019,0.15,0.00,VWS V14.01,2013-04-29 01:09:00,
2013-04-28 21:14:00,55.9,51.8,29.64,NNW,331,0.0,0.0,86,0.00,,OVC019,0.15,0.00,VWS V14.01,2013-04-29 01:14:00,
2013-04-28 21:19:00,55.9,51.8,29.64,NNW,331,0.0,0.0,86,0.00,,OVC019,0.15,0.00,VWS V14.01,2013-04-29 01:19:00,
2013-04-28 21:24:00,55.7,51.6,29.64,NNW,331,0.0,0.0,86,0.00,,OVC019,0.15,0.00,VWS V14.01,2013-04-29 01:24:00,
2013-04-28 21:29:00,55.7,51.6,29.64,NNW,331,0.0,0.0,86,0.00,,OVC019,0.15,0.00,VWS V14.01,2013-04-29 01:29:00,
2013-04-28 21:30:00,56.3,51.9,29.63,NNW,331,0.0,0.0,85,0.00,,OVC041,0.15,0.00,VWS V14.01,2013-04-29 01:30:00,
2013-04-28 21:34:00,55.6,51.5,29.64,NNW,331,0.0,0.0,86,0.00,,OVC019,0.15,0.00,VWS V14.01,2013-04-29 01:34:00,
2013-04-28 21:39:00,55.6,51.5,29.64,NNW,331,0.0,0.0,86,0.00,,OVC019,0.15,0.00,VWS V14.01,2013-04-29 01:39:00,
2013-04-28 21:44:00,55.4,51.3,29.64,NNW,331,0.0,0.0,86,0.00,,OVC019,0.15,0.00,VWS V14.01,2013-04-29 01:44:00,
2013-04-28 21:49:00,55.4,51.3,29.64,NNW,331,0.0,0.0,86,0.00,,OVC019,0.15,0.00,VWS V14.01,2013-04-29 01:49:00,
2013-04-28 21:54:00,55.3,51.5,29.64,NNW,331,0.0,0.0,87,0.00,,OVC019,0.15,0.00,VWS V14.01,2013-04-29 01:54:00,
2013-04-28 21:59:00,55.3,51.5,29.64,NNW,331,0.0,0.0,87,0.00,,OVC019,0.15,0.00,VWS V14.01,2013-04-29 01:59:00,
2013-04-28 22:00:00,56.0,51.6,29.64,NNW,331,0.0,0.0,85,0.00,,OVC041,0.15,0.00,VWS V14.01,2013-04-29 02:00:00,
2013-04-28 22:04:00,55.3,51.5,29.64,NNW,331,0.0,0.0,87,0.00,,OVC023,0.15,0.00,VWS V14.01,2013-04-29 02:04:00,
2013-04-28 22:09:00,55.1,51.3,29.65,NNW,331,0.0,0.0,87,0.00,,OVC023,0.15,0.00,VWS V14.01,2013-04-29 02:09:00,
2013-04-28 22:14:00,55.1,51.3,29.65,NNW,331,0.0,0.0,87,0.00,,OVC023,0.15,0.00,VWS V14.01,2013-04-29 02:14:00,
2013-04-28 22:19:00,55.1,51.3,29.65,NNW,331,0.0,0.0,87,0.00,,OVC023,0.15,0.00,VWS V14.01,2013-04-29 02:19:00,
2013-04-28 22:24:00,55.0,51.2,29.65,NNW,331,0.0,0.0,87,0.00,,OVC023,0.15,0.00,VWS V14.01,2013-04-29 02:24:00,
2013-04-28 22:29:00,55.0,51.2,29.65,NNW,331,0.0,0.0,87,0.00,,OVC023,0.15,0.00,VWS V14.01,2013-04-29 02:29:00,
2013-04-28 22:30:00,55.6,51.5,29.64,NNW,331,0.0,0.0,86,0.00,,OVC041,0.15,0.00,VWS V14.01,2013-04-29 02:30:00,
2013-04-28 22:34:00,54.8,51.0,29.65,NNW,331,0.0,0.0,87,0.00,,OVC023,0.15,0.00,VWS V14.01,2013-04-29 02:34:00,
2013-04-28 22:39:00,54.8,51.0,29.65,NNW,331,0.0,0.0,87,0.00,,OVC023,0.15,0.00,VWS V14.01,2013-04-29 02:39:00,
2013-04-28 22:44:00,54.8,51.0,29.65,NNW,331,0.0,0.0,87,0.00,,OVC023,0.15,0.00,VWS V14.01,2013-04-29 02:44:00,
2013-04-28 22:49:00,54.7,50.9,29.65,NNW,331,0.0,0.0,87,0.00,,OVC023,0.15,0.00,VWS V14.01,2013-04-29 02:49:00,
2013-04-28 22:54:00,54.7,50.9,29.65,NNW,331,0.0,0.0,87,0.00,,OVC023,0.15,0.00,VWS V14.01,2013-04-29 02:54:00,
2013-04-28 22:59:00,54.5,51.0,29.65,NNW,331,0.0,0.0,88,0.00,,OVC023,0.15,0.00,VWS V14.01,2013-04-29 02:59:00,
2013-04-28 23:00:00,55.3,51.5,29.65,NNW,331,0.0,0.0,87,0.00,,OVC041,0.15,0.00,VWS V14.01,2013-04-29 03:00:00,
2013-04-28 23:04:00,54.5,51.0,29.65,NNW,331,0.0,0.0,88,0.00,,OVC023,0.15,0.00,VWS V14.01,2013-04-29 03:04:00,
2013-04-28 23:09:00,54.4,50.9,29.65,NNW,331,0.0,0.0,88,0.00,,OVC023,0.15,0.00,VWS V14.01,2013-04-29 03:09:00,
2013-04-28 23:14:00,54.4,50.9,29.65,NNW,331,0.0,0.0,88,0.00,,OVC023,0.15,0.00,VWS V14.01,2013-04-29 03:14:00,
2013-04-28 23:19:00,54.4,50.9,29.65,NNW,331,0.0,0.0,88,0.00,,OVC023,0.15,0.00,VWS V14.01,2013-04-29 03:19:00,
2013-04-28 23:24:00,54.2,50.7,29.65,NNW,331,0.0,0.0,88,0.00,,OVC023,0.15,0.00,VWS V14.01,2013-04-29 03:24:00,
2013-04-28 23:29:00,54.1,50.6,29.65,NNW,331,0.0,0.0,88,0.00,,OVC023,0.15,0.00,VWS V14.01,2013-04-29 03:29:00,
2013-04-28 23:30:00,54.8,51.0,29.65,NNW,331,0.0,0.0,87,0.00,,OVC041,0.15,0.00,VWS V14.01,2013-04-29 03:30:00,
2013-04-28 23:34:00,53.9,50.4,29.65,NNW,331,0.0,0.0,88,0.00,,OVC023,0.15,0.00,VWS V14.01,2013-04-29 03:34:00,
2013-04-28 23:39:00,53.9,50.7,29.65,NNW,331,0.0,0.0,89,0.00,,OVC023,0.15,0.00,VWS V14.01,2013-04-29 03:39:00,
2013-04-28 23:44:00,53.8,50.3,29.65,NNW,331,0.0,0.0,88,0.00,,OVC023,0.15,0.00,VWS V14.01,2013-04-29 03:44:00,
2013-04-28 23:49:00,53.5,50.0,29.65,NNW,331,0.0,0.0,88,0.00,,OVC023,0.15,0.00,VWS V14.01,2013-04-29 03:49:00,
2013-04-28 23:54:00,53.3,49.8,29.65,NNW,331,0.0,0.0,88,0.00,,OVC023,0.15,0.00,VWS V14.01,2013-04-29 03:54:00,
2013-04-28 23:59:00,53.2,49.7,29.65,NNW,331,0.0,0.0,88,0.00,,OVC023,0.15,0.00,VWS V14.01,2013-04-29 03:59:00,